sensor_id;sensor_type;location;lat;lon;timestamp;noise_LAeq;noise_LA_min;noise_LA_max;noise_LA01;noise_LA95
56099;Laerm;44276;49.534;6.378;2024-02-28T00:01:31;42.82;41.46;44.62;;
56099;Laerm;44276;49.534;6.378;2024-02-28T00:04:00;42.84;41.46;44.54;;
56099;Laerm;44276;49.534;6.378;2024-02-28T00:06:28;42.82;41.46;43.90;;
56099;Laerm;44276;49.534;6.378;2024-02-28T00:08:57;42.83;41.53;43.90;;
56099;Laerm;44276;49.534;6.378;2024-02-28T00:11:25;42.87;41.53;43.94;;
56099;Laerm;44276;49.534;6.378;2024-02-28T00:13:53;42.87;41.46;44.07;;
56099;Laerm;44276;49.534;6.378;2024-02-28T00:16:21;42.90;41.38;44.07;;
56099;Laerm;44276;49.534;6.378;2024-02-28T00:18:49;42.91;41.46;43.99;;
56099;Laerm;44276;49.534;6.378;2024-02-28T00:21:19;42.94;41.53;44.11;;
56099;Laerm;44276;49.534;6.378;2024-02-28T00:23:47;42.95;41.68;44.07;;
56099;Laerm;44276;49.534;6.378;2024-02-28T00:26:15;42.99;41.38;44.19;;
56099;Laerm;44276;49.534;6.378;2024-02-28T00:28:44;43.00;41.53;44.07;;
56099;Laerm;44276;49.534;6.378;2024-02-28T00:31:12;43.03;41.53;45.27;;
56099;Laerm;44276;49.534;6.378;2024-02-28T00:33:40;43.01;41.53;44.23;;
56099;Laerm;44276;49.534;6.378;2024-02-28T00:36:08;43.07;41.53;45.60;;
56099;Laerm;44276;49.534;6.378;2024-02-28T00:38:38;43.13;41.75;45.42;;
56099;Laerm;44276;49.534;6.378;2024-02-28T00:41:06;43.14;41.68;44.80;;
56099;Laerm;44276;49.534;6.378;2024-02-28T00:43:34;43.07;41.75;44.39;;
56099;Laerm;44276;49.534;6.378;2024-02-28T00:46:03;43.09;41.82;44.43;;
56099;Laerm;44276;49.534;6.378;2024-02-28T00:48:31;43.09;41.68;44.27;;
56099;Laerm;44276;49.534;6.378;2024-02-28T00:50:59;43.10;41.96;44.23;;
56099;Laerm;44276;49.534;6.378;2024-02-28T00:53:27;43.10;41.53;44.15;;
56099;Laerm;44276;49.534;6.378;2024-02-28T00:55:57;43.11;41.89;44.27;;
56099;Laerm;44276;49.534;6.378;2024-02-28T00:58:25;43.11;41.89;44.15;;
56099;Laerm;44276;49.534;6.378;2024-02-28T01:00:57;43.12;41.53;44.27;;
56099;Laerm;44276;49.534;6.378;2024-02-28T01:03:26;43.13;41.89;44.27;;
56099;Laerm;44276;49.534;6.378;2024-02-28T01:05:54;43.15;42.03;44.19;;
56099;Laerm;44276;49.534;6.378;2024-02-28T01:08:22;43.15;41.82;44.23;;
56099;Laerm;44276;49.534;6.378;2024-02-28T01:10:50;43.22;42.03;45.33;;
56099;Laerm;44276;49.534;6.378;2024-02-28T01:13:20;43.17;41.89;44.35;;
56099;Laerm;44276;49.534;6.378;2024-02-28T01:15:50;43.24;41.89;45.42;;
56099;Laerm;44276;49.534;6.378;2024-02-28T01:18:18;43.35;41.61;46.40;;
56099;Laerm;44276;49.534;6.378;2024-02-28T01:20:46;43.35;41.82;47.40;;
56099;Laerm;44276;49.534;6.378;2024-02-28T01:23:14;43.21;41.94;44.23;;
56099;Laerm;44276;49.534;6.378;2024-02-28T01:25:43;43.22;42.00;44.27;;
56099;Laerm;44276;49.534;6.378;2024-02-28T01:28:11;43.22;41.61;44.39;;
56099;Laerm;44276;49.534;6.378;2024-02-28T01:30:41;43.23;41.89;44.27;;
56099;Laerm;44276;49.534;6.378;2024-02-28T01:33:09;43.25;41.96;44.47;;
56099;Laerm;44276;49.534;6.378;2024-02-28T01:35:39;43.28;42.03;44.35;;
56099;Laerm;44276;49.534;6.378;2024-02-28T01:38:08;43.31;41.96;45.11;;
56099;Laerm;44276;49.534;6.378;2024-02-28T01:40:36;43.28;41.96;44.43;;
56099;Laerm;44276;49.534;6.378;2024-02-28T01:43:06;43.29;41.89;44.35;;
56099;Laerm;44276;49.534;6.378;2024-02-28T01:45:35;43.29;41.89;44.43;;
56099;Laerm;44276;49.534;6.378;2024-02-28T01:48:06;43.35;42.06;45.30;;
56099;Laerm;44276;49.534;6.378;2024-02-28T01:50:37;43.36;41.96;45.72;;
56099;Laerm;44276;49.534;6.378;2024-02-28T01:53:08;43.31;41.96;44.35;;
56099;Laerm;44276;49.534;6.378;2024-02-28T01:55:39;43.32;41.82;44.54;;
56099;Laerm;44276;49.534;6.378;2024-02-28T01:58:07;43.33;42.03;44.51;;
56099;Laerm;44276;49.534;6.378;2024-02-28T02:00:36;43.34;42.03;44.95;;
56099;Laerm;44276;49.534;6.378;2024-02-28T02:03:06;43.33;41.61;44.43;;
56099;Laerm;44276;49.534;6.378;2024-02-28T02:05:34;43.34;42.22;44.39;;
56099;Laerm;44276;49.534;6.378;2024-02-28T02:08:04;43.35;42.16;44.80;;
56099;Laerm;44276;49.534;6.378;2024-02-28T02:10:32;43.32;42.09;44.47;;
56099;Laerm;44276;49.534;6.378;2024-02-28T02:13:04;43.34;42.22;44.51;;
56099;Laerm;44276;49.534;6.378;2024-02-28T02:15:33;43.43;42.16;46.69;;
56099;Laerm;44276;49.534;6.378;2024-02-28T02:18:01;43.36;41.96;44.69;;
56099;Laerm;44276;49.534;6.378;2024-02-28T02:20:36;43.35;41.96;44.47;;
56099;Laerm;44276;49.534;6.378;2024-02-28T02:23:08;43.38;41.96;44.73;;
56099;Laerm;44276;49.534;6.378;2024-02-28T02:25:44;43.35;42.09;45.04;;
56099;Laerm;44276;49.534;6.378;2024-02-28T02:28:13;43.35;42.09;44.39;;
56099;Laerm;44276;49.534;6.378;2024-02-28T02:30:41;43.37;42.22;44.47;;
56099;Laerm;44276;49.534;6.378;2024-02-28T02:33:10;43.39;41.89;45.51;;
56099;Laerm;44276;49.534;6.378;2024-02-28T02:35:38;43.41;42.09;45.63;;
56099;Laerm;44276;49.534;6.378;2024-02-28T02:38:08;43.39;42.09;44.47;;
56099;Laerm;44276;49.534;6.378;2024-02-28T02:40:36;43.36;41.89;45.23;;
56099;Laerm;44276;49.534;6.378;2024-02-28T02:43:04;43.43;41.96;45.63;;
56099;Laerm;44276;49.534;6.378;2024-02-28T02:45:32;43.38;42.09;45.07;;
56099;Laerm;44276;49.534;6.378;2024-02-28T02:48:00;43.45;42.03;46.91;;
56099;Laerm;44276;49.534;6.378;2024-02-28T02:50:28;43.34;42.16;44.35;;
56099;Laerm;44276;49.534;6.378;2024-02-28T02:52:57;43.32;42.03;44.51;;
56099;Laerm;44276;49.534;6.378;2024-02-28T02:55:27;43.37;42.16;44.47;;
56099;Laerm;44276;49.534;6.378;2024-02-28T02:57:55;43.40;42.16;46.13;;
56099;Laerm;44276;49.534;6.378;2024-02-28T03:00:23;43.32;42.03;44.39;;
56099;Laerm;44276;49.534;6.378;2024-02-28T03:02:51;43.33;41.96;44.62;;
56099;Laerm;44276;49.534;6.378;2024-02-28T03:05:19;43.34;41.96;44.39;;
56099;Laerm;44276;49.534;6.378;2024-02-28T03:07:48;43.37;42.03;44.47;;
56099;Laerm;44276;49.534;6.378;2024-02-28T03:10:16;43.37;41.82;44.51;;
56099;Laerm;44276;49.534;6.378;2024-02-28T03:12:45;43.34;41.96;44.39;;
56099;Laerm;44276;49.534;6.378;2024-02-28T03:15:14;43.32;41.82;44.39;;
56099;Laerm;44276;49.534;6.378;2024-02-28T03:17:43;43.34;42.03;44.51;;
56099;Laerm;44276;49.534;6.378;2024-02-28T03:20:11;43.32;41.96;44.62;;
56099;Laerm;44276;49.534;6.378;2024-02-28T03:22:40;43.49;41.61;47.61;;
56099;Laerm;44276;49.534;6.378;2024-02-28T03:25:09;43.29;41.89;44.47;;
56099;Laerm;44276;49.534;6.378;2024-02-28T03:27:38;43.37;41.96;45.91;;
56099;Laerm;44276;49.534;6.378;2024-02-28T03:30:08;43.33;42.16;44.83;;
56099;Laerm;44276;49.534;6.378;2024-02-28T03:32:36;43.28;42.19;44.58;;
56099;Laerm;44276;49.534;6.378;2024-02-28T03:35:05;43.35;42.03;45.57;;
56099;Laerm;44276;49.534;6.378;2024-02-28T03:37:35;43.28;41.89;44.43;;
56099;Laerm;44276;49.534;6.378;2024-02-28T03:40:05;43.27;41.96;44.35;;
56099;Laerm;44276;49.534;6.378;2024-02-28T03:42:33;43.29;41.96;44.31;;
56099;Laerm;44276;49.534;6.378;2024-02-28T03:45:02;43.26;41.75;44.31;;
56099;Laerm;44276;49.534;6.378;2024-02-28T03:47:32;43.25;41.75;44.31;;
56099;Laerm;44276;49.534;6.378;2024-02-28T03:50:01;43.30;42.00;44.45;;
56099;Laerm;44276;49.534;6.378;2024-02-28T03:52:30;43.30;41.96;44.97;;
56099;Laerm;44276;49.534;6.378;2024-02-28T03:54:58;43.27;42.03;44.31;;
56099;Laerm;44276;49.534;6.378;2024-02-28T03:57:27;43.30;41.75;44.65;;
56099;Laerm;44276;49.534;6.378;2024-02-28T03:59:55;43.28;41.75;44.39;;
56099;Laerm;44276;49.534;6.378;2024-02-28T04:02:23;43.30;41.82;45.23;;
56099;Laerm;44276;49.534;6.378;2024-02-28T04:04:53;43.29;41.89;45.23;;
56099;Laerm;44276;49.534;6.378;2024-02-28T04:07:21;43.22;41.89;44.35;;
56099;Laerm;44276;49.534;6.378;2024-02-28T04:09:49;43.29;41.89;44.54;;
56099;Laerm;44276;49.534;6.378;2024-02-28T04:12:18;43.25;42.16;44.35;;
56099;Laerm;44276;49.534;6.378;2024-02-28T04:14:46;43.31;42.03;44.65;;
56099;Laerm;44276;49.534;6.378;2024-02-28T04:17:14;43.34;42.09;45.20;;
56099;Laerm;44276;49.534;6.378;2024-02-28T04:19:43;43.29;41.75;44.62;;
56099;Laerm;44276;49.534;6.378;2024-02-28T04:22:12;43.42;42.09;45.94;;
56099;Laerm;44276;49.534;6.378;2024-02-28T04:24:40;43.32;41.89;44.43;;
56099;Laerm;44276;49.534;6.378;2024-02-28T04:27:09;43.51;41.61;46.84;;
56099;Laerm;44276;49.534;6.378;2024-02-28T04:29:38;43.34;41.96;44.69;;
56099;Laerm;44276;49.534;6.378;2024-02-28T04:32:06;43.44;41.96;45.57;;
56099;Laerm;44276;49.534;6.378;2024-02-28T04:34:36;43.35;42.00;44.58;;
56099;Laerm;44276;49.534;6.378;2024-02-28T04:37:04;43.29;41.89;44.54;;
56099;Laerm;44276;49.534;6.378;2024-02-28T04:39:34;43.34;41.82;44.87;;
56099;Laerm;44276;49.534;6.378;2024-02-28T04:42:02;43.29;42.03;44.51;;
56099;Laerm;44276;49.534;6.378;2024-02-28T04:44:30;43.32;41.89;45.60;;
56099;Laerm;44276;49.534;6.378;2024-02-28T04:46:59;43.33;41.96;44.80;;
56099;Laerm;44276;49.534;6.378;2024-02-28T04:49:27;43.38;41.82;45.80;;
56099;Laerm;44276;49.534;6.378;2024-02-28T04:51:55;43.47;41.96;48.49;;
56099;Laerm;44276;49.534;6.378;2024-02-28T04:54:24;43.32;41.75;44.65;;
56099;Laerm;44276;49.534;6.378;2024-02-28T04:56:54;43.42;41.89;45.42;;
56099;Laerm;44276;49.534;6.378;2024-02-28T04:59:22;43.45;41.89;45.11;;
56099;Laerm;44276;49.534;6.378;2024-02-28T05:01:50;43.41;42.09;46.05;;
56099;Laerm;44276;49.534;6.378;2024-02-28T05:04:18;43.45;42.03;45.14;;
56099;Laerm;44276;49.534;6.378;2024-02-28T05:06:47;43.47;42.09;44.90;;
56099;Laerm;44276;49.534;6.378;2024-02-28T05:09:16;43.40;41.96;44.97;;
56099;Laerm;44276;49.534;6.378;2024-02-28T05:11:44;43.47;41.89;45.23;;
56099;Laerm;44276;49.534;6.378;2024-02-28T05:14:14;43.35;41.89;45.23;;
56099;Laerm;44276;49.534;6.378;2024-02-28T05:16:42;43.51;42.09;45.14;;
56099;Laerm;44276;49.534;6.378;2024-02-28T05:19:10;43.36;41.96;44.47;;
56099;Laerm;44276;49.534;6.378;2024-02-28T05:21:42;43.36;41.89;45.01;;
56099;Laerm;44276;49.534;6.378;2024-02-28T05:24:10;43.36;42.03;46.13;;
56099;Laerm;44276;49.534;6.378;2024-02-28T05:26:39;43.28;42.09;44.69;;
56099;Laerm;44276;49.534;6.378;2024-02-28T05:29:07;43.29;41.82;44.73;;
56099;Laerm;44276;49.534;6.378;2024-02-28T05:31:37;43.33;42.03;45.33;;
56099;Laerm;44276;49.534;6.378;2024-02-28T05:34:05;43.60;41.68;50.14;;
56099;Laerm;44276;49.534;6.378;2024-02-28T05:36:33;43.39;42.22;45.14;;
56099;Laerm;44276;49.534;6.378;2024-02-28T05:39:02;43.40;42.03;45.20;;
56099;Laerm;44276;49.534;6.378;2024-02-28T05:41:32;43.37;41.68;44.65;;
56099;Laerm;44276;49.534;6.378;2024-02-28T05:44:00;43.48;41.68;46.66;;
56099;Laerm;44276;49.534;6.378;2024-02-28T05:46:28;43.49;41.82;46.69;;
56099;Laerm;44276;49.534;6.378;2024-02-28T05:48:59;43.40;42.03;45.97;;
56099;Laerm;44276;49.534;6.378;2024-02-28T05:51:27;43.41;42.03;45.83;;
56099;Laerm;44276;49.534;6.378;2024-02-28T05:53:55;43.37;41.75;45.23;;
56099;Laerm;44276;49.534;6.378;2024-02-28T05:56:23;43.28;41.61;44.39;;
56099;Laerm;44276;49.534;6.378;2024-02-28T05:58:51;43.33;41.96;45.04;;
56099;Laerm;44276;49.534;6.378;2024-02-28T06:01:19;43.41;42.00;45.14;;
56099;Laerm;44276;49.534;6.378;2024-02-28T06:03:48;43.34;41.94;45.11;;
56099;Laerm;44276;49.534;6.378;2024-02-28T06:06:19;43.26;41.82;44.35;;
56099;Laerm;44276;49.534;6.378;2024-02-28T06:08:47;43.45;41.89;45.54;;
56099;Laerm;44276;49.534;6.378;2024-02-28T06:11:15;43.41;41.96;45.86;;
56099;Laerm;44276;49.534;6.378;2024-02-28T06:13:43;43.31;41.89;44.90;;
56099;Laerm;44276;49.534;6.378;2024-02-28T06:16:14;43.64;42.03;57.38;;
56099;Laerm;44276;49.534;6.378;2024-02-28T06:18:44;43.46;42.09;45.11;;
56099;Laerm;44276;49.534;6.378;2024-02-28T06:21:13;43.48;41.96;45.72;;
56099;Laerm;44276;49.534;6.378;2024-02-28T06:23:43;43.45;41.96;45.30;;
56099;Laerm;44276;49.534;6.378;2024-02-28T06:26:12;43.41;42.03;45.54;;
56099;Laerm;44276;49.534;6.378;2024-02-28T06:28:44;43.44;41.96;46.02;;
56099;Laerm;44276;49.534;6.378;2024-02-28T06:31:15;43.37;41.82;44.73;;
56099;Laerm;44276;49.534;6.378;2024-02-28T06:33:44;43.41;41.82;45.60;;
56099;Laerm;44276;49.534;6.378;2024-02-28T06:36:12;43.34;41.89;45.04;;
56099;Laerm;44276;49.534;6.378;2024-02-28T06:38:43;43.37;41.75;45.37;;
56099;Laerm;44276;49.534;6.378;2024-02-28T06:41:11;43.31;41.96;44.58;;
56099;Laerm;44276;49.534;6.378;2024-02-28T06:43:39;43.31;42.03;45.91;;
56099;Laerm;44276;49.534;6.378;2024-02-28T06:46:08;43.38;41.68;45.42;;
56099;Laerm;44276;49.534;6.378;2024-02-28T06:48:36;43.40;42.09;45.99;;
56099;Laerm;44276;49.534;6.378;2024-02-28T06:51:05;43.32;42.03;45.11;;
56099;Laerm;44276;49.534;6.378;2024-02-28T06:53:33;43.36;41.89;45.23;;
56099;Laerm;44276;49.534;6.378;2024-02-28T06:56:03;43.40;42.03;45.57;;
56099;Laerm;44276;49.534;6.378;2024-02-28T06:58:32;43.34;41.75;46.25;;
56099;Laerm;44276;49.534;6.378;2024-02-28T07:01:00;43.40;41.75;49.28;;
56099;Laerm;44276;49.534;6.378;2024-02-28T07:03:28;43.44;41.89;45.97;;
56099;Laerm;44276;49.534;6.378;2024-02-28T07:05:57;43.37;41.96;45.27;;
56099;Laerm;44276;49.534;6.378;2024-02-28T07:08:25;43.41;41.89;48.74;;
56099;Laerm;44276;49.534;6.378;2024-02-28T07:10:53;43.44;41.75;45.57;;
56099;Laerm;44276;49.534;6.378;2024-02-28T07:13:24;43.39;41.68;45.60;;
56099;Laerm;44276;49.534;6.378;2024-02-28T07:15:54;43.41;41.89;45.36;;
56099;Laerm;44276;49.534;6.378;2024-02-28T07:18:24;43.34;41.61;45.36;;
56099;Laerm;44276;49.534;6.378;2024-02-28T07:20:55;43.38;42.09;45.11;;
56099;Laerm;44276;49.534;6.378;2024-02-28T07:23:23;43.34;41.82;45.45;;
56099;Laerm;44276;49.534;6.378;2024-02-28T07:25:51;43.32;42.09;44.97;;
56099;Laerm;44276;49.534;6.378;2024-02-28T07:28:20;43.25;41.68;44.54;;
56099;Laerm;44276;49.534;6.378;2024-02-28T07:30:49;43.29;41.96;44.87;;
56099;Laerm;44276;49.534;6.378;2024-02-28T07:33:17;43.38;41.96;44.94;;
56099;Laerm;44276;49.534;6.378;2024-02-28T07:35:46;43.30;41.75;44.45;;
56099;Laerm;44276;49.534;6.378;2024-02-28T07:38:15;43.33;42.16;45.33;;
56099;Laerm;44276;49.534;6.378;2024-02-28T07:40:44;43.40;41.89;45.36;;
56099;Laerm;44276;49.534;6.378;2024-02-28T07:43:12;43.29;41.96;45.01;;
56099;Laerm;44276;49.534;6.378;2024-02-28T07:45:41;43.36;42.03;44.76;;
56099;Laerm;44276;49.534;6.378;2024-02-28T07:48:10;43.35;41.89;45.11;;
56099;Laerm;44276;49.534;6.378;2024-02-28T07:50:39;43.46;41.96;45.51;;
56099;Laerm;44276;49.534;6.378;2024-02-28T07:53:08;43.38;42.16;45.14;;
56099;Laerm;44276;49.534;6.378;2024-02-28T07:55:37;43.34;41.96;45.33;;
56099;Laerm;44276;49.534;6.378;2024-02-28T07:58:05;43.34;41.82;44.69;;
56099;Laerm;44276;49.534;6.378;2024-02-28T08:00:34;43.39;41.96;45.51;;
56099;Laerm;44276;49.534;6.378;2024-02-28T08:03:03;43.28;41.82;44.47;;
56099;Laerm;44276;49.534;6.378;2024-02-28T08:05:32;43.39;42.03;45.39;;
56099;Laerm;44276;49.534;6.378;2024-02-28T08:08:06;43.32;41.96;44.54;;
56099;Laerm;44276;49.534;6.378;2024-02-28T08:10:35;43.33;41.96;45.01;;
56099;Laerm;44276;49.534;6.378;2024-02-28T08:13:03;43.37;41.89;45.45;;
56099;Laerm;44276;49.534;6.378;2024-02-28T08:15:32;43.34;41.82;44.87;;
56099;Laerm;44276;49.534;6.378;2024-02-28T08:18:00;43.38;41.81;45.36;;
56099;Laerm;44276;49.534;6.378;2024-02-28T08:20:28;43.42;41.89;45.91;;
56099;Laerm;44276;49.534;6.378;2024-02-28T08:22:58;43.35;41.96;44.86;;
56099;Laerm;44276;49.534;6.378;2024-02-28T08:25:27;43.28;42.03;44.73;;
56099;Laerm;44276;49.534;6.378;2024-02-28T08:27:55;43.30;41.82;44.47;;
56099;Laerm;44276;49.534;6.378;2024-02-28T08:30:23;43.41;41.53;45.36;;
56099;Laerm;44276;49.534;6.378;2024-02-28T08:32:52;43.26;41.82;44.47;;
56099;Laerm;44276;49.534;6.378;2024-02-28T08:35:20;43.33;41.75;44.80;;
56099;Laerm;44276;49.534;6.378;2024-02-28T08:37:50;43.35;41.96;45.48;;
56099;Laerm;44276;49.534;6.378;2024-02-28T08:40:20;43.35;42.03;44.51;;
56099;Laerm;44276;49.534;6.378;2024-02-28T08:42:48;43.40;41.89;44.90;;
56099;Laerm;44276;49.534;6.378;2024-02-28T08:45:20;43.32;41.75;44.45;;
56099;Laerm;44276;49.534;6.378;2024-02-28T08:47:48;43.31;41.89;44.65;;
56099;Laerm;44276;49.534;6.378;2024-02-28T08:50:17;43.44;42.03;45.89;;
56099;Laerm;44276;49.534;6.378;2024-02-28T08:52:45;43.37;42.16;45.48;;
56099;Laerm;44276;49.534;6.378;2024-02-28T08:55:14;43.36;41.96;45.20;;
56099;Laerm;44276;49.534;6.378;2024-02-28T08:57:46;43.34;41.82;45.01;;
56099;Laerm;44276;49.534;6.378;2024-02-28T09:00:15;43.36;42.03;45.48;;
56099;Laerm;44276;49.534;6.378;2024-02-28T09:02:44;43.31;41.96;44.39;;
56099;Laerm;44276;49.534;6.378;2024-02-28T09:05:13;43.42;42.03;45.01;;
56099;Laerm;44276;49.534;6.378;2024-02-28T09:07:41;43.33;41.96;45.17;;
56099;Laerm;44276;49.534;6.378;2024-02-28T09:10:10;43.34;42.00;44.76;;
56099;Laerm;44276;49.534;6.378;2024-02-28T09:12:39;43.43;42.03;45.54;;
56099;Laerm;44276;49.534;6.378;2024-02-28T09:15:09;43.40;42.16;46.20;;
56099;Laerm;44276;49.534;6.378;2024-02-28T09:17:37;43.36;42.03;44.59;;
56099;Laerm;44276;49.534;6.378;2024-02-28T09:20:07;43.36;42.09;47.54;;
56099;Laerm;44276;49.534;6.378;2024-02-28T09:22:35;43.35;41.75;45.27;;
56099;Laerm;44276;49.534;6.378;2024-02-28T09:25:06;43.35;42.09;45.46;;
56099;Laerm;44276;49.534;6.378;2024-02-28T09:27:36;43.34;41.89;48.70;;
56099;Laerm;44276;49.534;6.378;2024-02-28T09:30:07;43.38;41.89;45.01;;
56099;Laerm;44276;49.534;6.378;2024-02-28T09:32:36;43.28;41.89;45.07;;
56099;Laerm;44276;49.534;6.378;2024-02-28T09:35:05;43.38;41.96;45.83;;
56099;Laerm;44276;49.534;6.378;2024-02-28T09:37:33;43.29;41.82;45.89;;
56099;Laerm;44276;49.534;6.378;2024-02-28T09:40:01;43.12;41.61;44.43;;
56099;Laerm;44276;49.534;6.378;2024-02-28T09:42:30;43.21;41.68;44.80;;
56099;Laerm;44276;49.534;6.378;2024-02-28T09:45:01;43.11;41.68;44.58;;
56099;Laerm;44276;49.534;6.378;2024-02-28T09:47:31;43.17;41.68;45.23;;
56099;Laerm;44276;49.534;6.378;2024-02-28T09:50:02;43.08;41.61;44.35;;
56099;Laerm;44276;49.534;6.378;2024-02-28T09:52:32;43.32;41.75;47.86;;
56099;Laerm;44276;49.534;6.378;2024-02-28T09:55:00;43.02;41.61;44.80;;
56099;Laerm;44276;49.534;6.378;2024-02-28T09:57:31;43.12;41.46;45.04;;
56099;Laerm;44276;49.534;6.378;2024-02-28T10:00:01;43.05;41.68;45.23;;
56099;Laerm;44276;49.534;6.378;2024-02-28T10:02:31;43.25;41.61;45.66;;
56099;Laerm;44276;49.534;6.378;2024-02-28T10:05:01;42.99;41.68;45.17;;
56099;Laerm;44276;49.534;6.378;2024-02-28T10:07:30;43.15;41.61;45.17;;
56099;Laerm;44276;49.534;6.378;2024-02-28T10:09:59;43.23;41.46;47.22;;
56099;Laerm;44276;49.534;6.378;2024-02-28T10:12:27;43.17;41.30;47.00;;
56099;Laerm;44276;49.534;6.378;2024-02-28T10:14:55;42.92;41.38;45.27;;
56099;Laerm;44276;49.534;6.378;2024-02-28T10:17:23;42.86;41.38;44.51;;
56099;Laerm;44276;49.534;6.378;2024-02-28T10:19:58;42.77;41.03;44.58;;
56099;Laerm;44276;49.534;6.378;2024-02-28T10:22:26;42.84;41.14;44.97;;
56099;Laerm;44276;49.534;6.378;2024-02-28T10:24:57;43.00;40.98;46.82;;
56099;Laerm;44276;49.534;6.378;2024-02-28T10:27:26;43.08;40.89;46.50;;
56099;Laerm;44276;49.534;6.378;2024-02-28T10:29:54;42.89;40.98;46.43;;
56099;Laerm;44276;49.534;6.378;2024-02-28T10:32:23;42.82;41.19;45.39;;
56099;Laerm;44276;49.534;6.378;2024-02-28T10:34:52;42.94;41.30;45.20;;
56099;Laerm;44276;49.534;6.378;2024-02-28T10:37:22;43.14;41.22;45.86;;
56099;Laerm;44276;49.534;6.378;2024-02-28T10:39:54;42.93;40.89;46.63;;
56099;Laerm;44276;49.534;6.378;2024-02-28T10:42:26;42.84;40.71;48.49;;
56099;Laerm;44276;49.534;6.378;2024-02-28T10:44:57;42.73;40.98;46.38;;
56099;Laerm;44276;49.534;6.378;2024-02-28T10:47:46;42.84;40.80;46.20;;
56099;Laerm;44276;49.534;6.378;2024-02-28T10:50:15;43.08;40.62;46.50;;
56099;Laerm;44276;49.534;6.378;2024-02-28T10:52:46;42.90;40.80;46.90;;
56099;Laerm;44276;49.534;6.378;2024-02-28T10:55:21;42.76;40.89;46.64;;
56099;Laerm;44276;49.534;6.378;2024-02-28T10:58:02;42.78;40.71;45.20;;
56099;Laerm;44276;49.534;6.378;2024-02-28T11:00:31;42.96;40.89;47.16;;
56099;Laerm;44276;49.534;6.378;2024-02-28T11:03:01;42.62;40.71;45.94;;
56099;Laerm;44276;49.534;6.378;2024-02-28T11:05:37;42.70;40.62;44.83;;
56099;Laerm;44276;49.534;6.378;2024-02-28T11:08:10;42.75;40.53;47.10;;
56099;Laerm;44276;49.534;6.378;2024-02-28T11:10:41;42.93;41.06;50.71;;
56099;Laerm;44276;49.534;6.378;2024-02-28T11:13:21;42.86;40.43;48.28;;
56099;Laerm;44276;49.534;6.378;2024-02-28T11:15:50;42.50;40.33;45.77;;
56099;Laerm;44276;49.534;6.378;2024-02-28T11:18:19;42.56;40.53;44.97;;
56099;Laerm;44276;49.534;6.378;2024-02-28T11:20:47;43.01;40.33;48.77;;
56099;Laerm;44276;49.534;6.378;2024-02-28T11:23:18;42.61;40.71;45.99;;
56099;Laerm;44276;49.534;6.378;2024-02-28T11:25:47;42.98;40.33;47.98;;
56099;Laerm;44276;49.534;6.378;2024-02-28T11:28:16;42.58;40.62;48.61;;
56099;Laerm;44276;49.534;6.378;2024-02-28T11:30:44;42.81;40.71;52.95;;
56099;Laerm;44276;49.534;6.378;2024-02-28T11:33:13;42.91;40.89;46.80;;
56099;Laerm;44276;49.534;6.378;2024-02-28T11:35:41;42.83;40.62;47.79;;
56099;Laerm;44276;49.534;6.378;2024-02-28T11:38:10;42.70;40.43;50.75;;
56099;Laerm;44276;49.534;6.378;2024-02-28T11:40:49;42.99;39.58;46.71;;
56099;Laerm;44276;49.534;6.378;2024-02-28T11:43:18;43.04;40.53;45.39;;
56099;Laerm;44276;49.534;6.378;2024-02-28T11:45:46;42.77;40.43;47.16;;
56099;Laerm;44276;49.534;6.378;2024-02-28T11:48:15;43.12;40.13;47.74;;
56099;Laerm;44276;49.534;6.378;2024-02-28T11:50:44;42.84;40.03;46.02;;
56099;Laerm;44276;49.534;6.378;2024-02-28T11:53:12;42.77;40.53;45.11;;
56099;Laerm;44276;49.534;6.378;2024-02-28T11:55:41;43.12;40.53;45.72;;
56099;Laerm;44276;49.534;6.378;2024-02-28T11:58:11;43.05;40.53;46.10;;
56099;Laerm;44276;49.534;6.378;2024-02-28T12:00:47;43.55;40.43;49.81;;
56099;Laerm;44276;49.534;6.378;2024-02-28T12:03:21;42.81;39.92;52.09;;
56099;Laerm;44276;49.534;6.378;2024-02-28T12:05:50;43.74;40.33;55.35;;
56099;Laerm;44276;49.534;6.378;2024-02-28T12:08:19;42.67;40.03;46.15;;
56099;Laerm;44276;49.534;6.378;2024-02-28T12:10:48;43.15;40.23;53.35;;
56099;Laerm;44276;49.534;6.378;2024-02-28T12:13:18;42.86;39.70;49.55;;
56099;Laerm;44276;49.534;6.378;2024-02-28T12:15:49;42.94;40.62;48.23;;
56099;Laerm;44276;49.534;6.378;2024-02-28T12:18:17;43.12;40.53;47.84;;
56099;Laerm;44276;49.534;6.378;2024-02-28T12:20:45;43.00;40.71;46.48;;
56099;Laerm;44276;49.534;6.378;2024-02-28T12:23:14;43.18;40.71;47.91;;
56099;Laerm;44276;49.534;6.378;2024-02-28T12:25:42;42.86;40.23;49.44;;
56099;Laerm;44276;49.534;6.378;2024-02-28T12:28:10;43.89;40.98;49.18;;
56099;Laerm;44276;49.534;6.378;2024-02-28T12:30:42;43.60;40.80;49.00;;
56099;Laerm;44276;49.534;6.378;2024-02-28T12:33:11;43.66;41.53;49.23;;
56099;Laerm;44276;49.534;6.378;2024-02-28T12:35:39;43.72;41.53;51.78;;
56099;Laerm;44276;49.534;6.378;2024-02-28T12:38:09;43.74;41.75;46.23;;
56099;Laerm;44276;49.534;6.378;2024-02-28T12:40:37;43.64;41.22;46.28;;
56099;Laerm;44276;49.534;6.378;2024-02-28T12:43:05;43.89;41.61;48.42;;
56099;Laerm;44276;49.534;6.378;2024-02-28T12:45:33;43.99;41.14;48.40;;
56099;Laerm;44276;49.534;6.378;2024-02-28T12:48:03;43.54;40.53;48.39;;
56099;Laerm;44276;49.534;6.378;2024-02-28T12:50:33;43.58;40.53;53.55;;
56099;Laerm;44276;49.534;6.378;2024-02-28T12:53:02;42.98;40.13;45.72;;
56099;Laerm;44276;49.534;6.378;2024-02-28T12:55:30;43.66;40.23;48.90;;
56099;Laerm;44276;49.534;6.378;2024-02-28T12:57:58;43.06;40.62;46.45;;
56099;Laerm;44276;49.534;6.378;2024-02-28T13:00:31;42.86;40.03;45.60;;
56099;Laerm;44276;49.534;6.378;2024-02-28T13:03:00;43.35;40.53;47.12;;
56099;Laerm;44276;49.534;6.378;2024-02-28T13:05:29;43.85;40.62;48.45;;
56099;Laerm;44276;49.534;6.378;2024-02-28T13:07:58;43.23;40.03;48.42;;
56099;Laerm;44276;49.534;6.378;2024-02-28T13:10:26;44.62;41.75;49.87;;
56099;Laerm;44276;49.534;6.378;2024-02-28T13:12:54;43.56;40.43;46.80;;
56099;Laerm;44276;49.534;6.378;2024-02-28T13:15:22;43.26;40.53;45.48;;
56099;Laerm;44276;49.534;6.378;2024-02-28T13:17:51;43.55;40.63;49.74;;
56099;Laerm;44276;49.534;6.378;2024-02-28T13:20:19;43.37;40.43;46.10;;
56099;Laerm;44276;49.534;6.378;2024-02-28T13:22:49;43.82;40.62;48.64;;
56099;Laerm;44276;49.534;6.378;2024-02-28T13:25:17;44.16;40.23;49.72;;
56099;Laerm;44276;49.534;6.378;2024-02-28T13:27:46;44.18;40.53;50.99;;
56099;Laerm;44276;49.534;6.378;2024-02-28T13:30:15;45.14;41.38;52.56;;
56099;Laerm;44276;49.534;6.378;2024-02-28T13:32:44;44.57;39.70;51.70;;
56099;Laerm;44276;49.534;6.378;2024-02-28T13:35:16;44.33;37.70;52.24;;
56099;Laerm;44276;49.534;6.378;2024-02-28T13:37:44;45.06;40.13;53.29;;
56099;Laerm;44276;49.534;6.378;2024-02-28T13:40:14;45.77;38.21;55.34;;
56099;Laerm;44276;49.534;6.378;2024-02-28T13:42:42;44.11;39.46;52.31;;
56099;Laerm;44276;49.534;6.378;2024-02-28T13:45:12;44.54;40.23;52.44;;
56099;Laerm;44276;49.534;6.378;2024-02-28T13:47:40;44.57;38.05;52.89;;
56099;Laerm;44276;49.534;6.378;2024-02-28T13:50:09;44.60;40.71;55.94;;
56099;Laerm;44276;49.534;6.378;2024-02-28T13:52:37;44.12;38.74;53.02;;
56099;Laerm;44276;49.534;6.378;2024-02-28T13:55:07;44.06;37.52;49.32;;